Terminal Aerodrome Forecast
Issued by NWS Wakefield, VA

Home | Current Version | Previous Version | Text Only | Print | Product List | Glossary On
Versions: 1 2 3 4 5 6 7 8 9 10 11 12 13
000
FTUS41 KAKQ 201100
TAFECG
TAF
KECG 201130Z 2012/2112 35008KT P6SM BKN100
     FM201600 34006KT P6SM VCSH SCT040 OVC080
     FM201800 02005KT P6SM -RA BKN020 OVC050
     FM210000 04002KT P6SM BKN100=

USA.gov is the U.S. government's official web portal to all federal, state and local government web resources and services.